Time;durP1;ratioP1;P1;durP2;ratioP2;P2;SDS_P1;SDS_P2;PMS_P1;PMS_P2;Temp;Humidity;BMP_temperature;BMP_pressure;BME280_temperature;BME280_humidity;BME280_pressure;Samples;Min_cycle;Max_cycle;Signal;HPM_P1;HPM_P2
2022/03/10 00:02:07;;;;;;;14.77;8.38;;;4.50;51.90;;;;;;4987658;28;20397;-78
2022/03/10 00:04:34;;;;;;;13.32;9.07;;;4.60;51.90;;;;;;4985524;28;20040;-77
2022/03/10 00:07:01;;;;;;;18.88;11.63;;;4.60;51.20;;;;;;4972688;28;20044;-79
2022/03/10 00:09:27;;;;;;;16.65;8.93;;;4.40;50.90;;;;;;4984164;28;20129;-77
2022/03/10 00:11:53;;;;;;;13.93;8.95;;;4.30;51.70;;;;;;4986196;28;20121;-78
2022/03/10 00:14:18;;;;;;;15.48;9.25;;;4.40;53.20;;;;;;4997331;28;20125;-77
2022/03/10 00:16:44;;;;;;;15.15;9.02;;;4.40;52.10;;;;;;5001626;28;20076;-77
2022/03/10 00:19:12;;;;;;;16.65;9.88;;;4.50;52.70;;;;;;4971867;28;20034;-77
2022/03/10 00:21:38;;;;;;;20.63;10.45;;;4.60;52.20;;;;;;4973968;28;20088;-79
2022/03/10 00:24:04;;;;;;;19.77;10.82;;;4.70;52.10;;;;;;4976026;28;20026;-78
2022/03/10 00:26:29;;;;;;;15.18;9.95;;;4.50;51.90;;;;;;4989384;28;20061;-77
2022/03/10 00:28:55;;;;;;;17.63;10.23;;;4.30;51.70;;;;;;4981680;28;20702;-77
2022/03/10 00:31:21;;;;;;;18.52;10.02;;;4.30;52.80;;;;;;4967559;28;20080;-77
2022/03/10 00:33:47;;;;;;;20.17;11.50;;;4.20;52.40;;;;;;4976505;28;20030;-78
2022/03/10 00:36:12;;;;;;;18.92;10.63;;;4.00;53.40;;;;;;4969554;28;20037;-79
2022/03/10 00:38:38;;;;;;;21.45;11.07;;;4.00;54.40;;;;;;4984743;28;20030;-78
2022/03/10 00:41:03;;;;;;;19.05;11.07;;;3.90;54.20;;;;;;4981773;28;20026;-78
2022/03/10 00:43:29;;;;;;;17.13;10.43;;;4.00;54.20;;;;;;4989070;28;20033;-78
2022/03/10 00:45:54;;;;;;;23.95;11.20;;;3.90;54.30;;;;;;4966902;28;20068;-76
2022/03/10 00:48:20;;;;;;;17.52;10.02;;;4.00;54.70;;;;;;4973134;28;20041;-77
2022/03/10 00:50:45;;;;;;;21.02;11.02;;;4.10;55.80;;;;;;4985787;28;20076;-78
2022/03/10 00:53:11;;;;;;;19.58;10.40;;;4.00;54.50;;;;;;4966511;28;20097;-79
2022/03/10 00:55:37;;;;;;;19.10;10.82;;;4.10;55.40;;;;;;4972603;28;20490;-78
2022/03/10 00:58:02;;;;;;;17.40;9.73;;;4.00;54.60;;;;;;4969451;28;20033;-77
2022/03/10 01:00:29;;;;;;;21.40;11.55;;;4.00;54.80;;;;;;4966681;28;20036;-77
2022/03/10 01:02:57;;;;;;;21.83;11.38;;;3.90;54.80;;;;;;4966141;28;20025;-77
2022/03/10 01:05:23;;;;;;;20.90;11.00;;;3.80;55.00;;;;;;4966345;28;20069;-79
2022/03/10 01:07:48;;;;;;;20.15;10.65;;;3.70;55.20;;;;;;4982918;28;20041;-77
2022/03/10 01:10:14;;;;;;;24.13;11.40;;;3.70;55.90;;;;;;4969448;28;20030;-76
2022/03/10 01:12:42;;;;;;;20.13;10.13;;;3.60;55.40;;;;;;4975173;28;20551;-78
2022/03/10 01:15:09;;;;;;;21.35;10.45;;;3.60;56.10;;;;;;4987892;28;20037;-77
2022/03/10 01:17:35;;;;;;;18.08;9.77;;;3.90;56.50;;;;;;4970466;28;20053;-76
2022/03/10 01:20:00;;;;;;;20.05;8.90;;;3.80;56.20;;;;;;4982618;28;20053;-79
2022/03/10 01:22:26;;;;;;;19.50;10.57;;;3.80;56.00;;;;;;4975321;28;20033;-78
2022/03/10 01:24:51;;;;;;;19.55;10.93;;;3.70;55.70;;;;;;4988889;28;20097;-77
2022/03/10 01:27:17;;;;;;;21.00;11.10;;;3.50;55.30;;;;;;4973484;28;20033;-77
2022/03/10 01:29:43;;;;;;;20.80;10.93;;;3.30;55.90;;;;;;4971334;28;20040;-77
2022/03/10 01:32:08;;;;;;;21.77;11.43;;;3.20;56.00;;;;;;4988892;28;20045;-79
2022/03/10 01:34:34;;;;;;;21.13;11.50;;;3.10;56.70;;;;;;4979542;28;20507;-77
2022/03/10 01:37:00;;;;;;;20.80;11.40;;;3.10;56.50;;;;;;4974779;28;20036;-78
2022/03/10 01:39:25;;;;;;;21.92;11.30;;;3.00;56.60;;;;;;4974152;28;20038;-77
2022/03/10 01:41:51;;;;;;;18.35;10.77;;;3.10;57.00;;;;;;4975321;28;20120;-78
2022/03/10 01:44:20;;;;;;;19.55;11.35;;;3.10;57.30;;;;;;4970967;28;20421;-77
2022/03/10 01:46:46;;;;;;;20.42;11.98;;;3.10;57.30;;;;;;4987811;28;20041;-76
2022/03/10 01:49:11;;;;;;;21.85;12.23;;;3.10;57.40;;;;;;4983487;28;20128;-78
2022/03/10 01:51:37;;;;;;;23.67;11.38;;;3.20;57.50;;;;;;4970461;28;20127;-78
2022/03/10 01:54:03;;;;;;;20.30;10.82;;;3.20;57.40;;;;;;4981281;28;20509;-79
2022/03/10 01:56:28;;;;;;;18.45;11.35;;;3.10;58.30;;;;;;4984865;28;20030;-77
2022/03/10 01:58:54;;;;;;;17.83;11.00;;;3.10;58.50;;;;;;4968480;28;20473;-78
2022/03/10 02:01:20;;;;;;;23.88;11.90;;;3.10;58.30;;;;;;4984102;28;20034;-77
2022/03/10 02:03:45;;;;;;;19.42;11.68;;;3.10;58.90;;;;;;4973354;28;20033;-79
2022/03/10 02:06:11;;;;;;;21.02;11.93;;;3.00;59.00;;;;;;4984990;28;20357;-78
2022/03/10 02:11:21;;;;;;;22.13;11.82;;;3.00;58.90;;;;;;4981020;28;20029;-77
2022/03/10 02:13:46;;;;;;;23.67;12.02;;;3.20;59.00;;;;;;4982791;28;20042;-77
2022/03/10 02:18:57;;;;;;;20.67;12.13;;;3.20;58.90;;;;;;4989179;28;20093;-77
2022/03/10 02:21:23;;;;;;;19.95;11.23;;;3.10;58.70;;;;;;4966780;28;20042;-78
2022/03/10 02:23:48;;;;;;;19.65;11.32;;;3.10;59.30;;;;;;4988939;28;20033;-77
2022/03/10 02:26:15;;;;;;;22.45;11.93;;;3.30;60.10;;;;;;5002658;28;20037;-79
2022/03/10 02:28:41;;;;;;;21.65;12.13;;;3.10;59.00;;;;;;4974046;28;20030;-77
2022/03/10 02:31:06;;;;;;;19.00;11.20;;;3.10;60.20;;;;;;4969607;28;20029;-78
2022/03/10 02:33:32;;;;;;;20.25;11.55;;;3.10;59.60;;;;;;4973912;28;20072;-78
2022/03/10 02:35:58;;;;;;;23.40;11.85;;;2.90;59.40;;;;;;4967478;28;20532;-77
2022/03/10 02:38:23;;;;;;;23.42;11.57;;;2.80;59.90;;;;;;4981657;28;20727;-76
2022/03/10 02:40:49;;;;;;;25.38;11.50;;;2.90;60.50;;;;;;4964674;28;20494;-77
2022/03/10 02:43:15;;;;;;;20.02;11.52;;;2.80;60.70;;;;;;4980224;28;20091;-77
2022/03/10 02:45:41;;;;;;;22.50;12.23;;;2.90;62.50;;;;;;4984519;28;20401;-77
2022/03/10 02:48:06;;;;;;;19.60;10.60;;;3.20;62.10;;;;;;4973070;28;20033;-78
2022/03/10 02:50:32;;;;;;;12.43;8.02;;;3.20;61.70;;;;;;4985509;28;20030;-78
2022/03/10 02:52:57;;;;;;;20.58;10.85;;;3.40;62.20;;;;;;4987869;28;20068;-77
2022/03/10 02:55:23;;;;;;;22.02;12.57;;;3.30;61.70;;;;;;4964220;28;20049;-77
2022/03/10 02:57:49;;;;;;;17.63;10.18;;;3.30;61.90;;;;;;4975700;28;20030;-78
2022/03/10 03:00:15;;;;;;;22.83;11.85;;;3.00;62.00;;;;;;4966987;28;20642;-75
2022/03/10 03:02:40;;;;;;;19.70;12.02;;;3.00;61.80;;;;;;4990929;28;20036;-76
2022/03/10 03:05:07;;;;;;;23.77;12.30;;;2.60;63.10;;;;;;4973842;28;20105;-77
2022/03/10 03:07:33;;;;;;;24.02;12.15;;;2.40;64.70;;;;;;4982382;28;20049;-77
2022/03/10 03:09:59;;;;;;;21.58;11.32;;;2.40;66.20;;;;;;4982331;28;20465;-77
2022/03/10 03:12:24;;;;;;;23.73;11.75;;;2.30;66.70;;;;;;4986553;28;20034;-77
2022/03/10 03:14:50;;;;;;;22.65;12.38;;;2.20;67.60;;;;;;4963598;28;20030;-77
2022/03/10 03:17:15;;;;;;;27.23;12.80;;;2.20;68.70;;;;;;4978921;28;20029;-79
2022/03/10 03:19:41;;;;;;;24.42;12.65;;;2.20;69.10;;;;;;4988041;28;20034;-77
2022/03/10 03:22:06;;;;;;;19.23;11.45;;;2.00;70.40;;;;;;4982333;28;20630;-76
2022/03/10 03:24:32;;;;;;;20.90;11.82;;;2.00;70.80;;;;;;4967634;28;20483;-76
2022/03/10 03:26:58;;;;;;;24.65;12.20;;;2.20;70.60;;;;;;4979723;28;20034;-77
2022/03/10 03:29:24;;;;;;;21.45;12.15;;;2.20;69.60;;;;;;4984377;28;20494;-78
2022/03/10 03:31:49;;;;;;;23.42;11.98;;;2.10;69.70;;;;;;4984553;28;20037;-77
2022/03/10 03:34:15;;;;;;;20.75;11.95;;;2.10;69.70;;;;;;4984937;28;20037;-76
2022/03/10 03:36:41;;;;;;;21.25;11.43;;;2.10;71.30;;;;;;4985604;28;20078;-77
2022/03/10 03:39:07;;;;;;;24.73;10.70;;;2.00;70.90;;;;;;4971538;28;20040;-77
2022/03/10 03:41:32;;;;;;;23.42;11.43;;;2.00;71.90;;;;;;4981483;28;20021;-79
2022/03/10 03:43:58;;;;;;;20.08;10.95;;;2.10;72.20;;;;;;4986056;28;20116;-80
2022/03/10 03:46:23;;;;;;;17.17;9.38;;;2.30;71.40;;;;;;4981711;28;20230;-79
2022/03/10 03:48:49;;;;;;;15.20;8.93;;;2.40;71.30;;;;;;4983313;28;20029;-78
2022/03/10 03:51:14;;;;;;;19.50;10.27;;;2.60;71.40;;;;;;4983751;28;20110;-79
2022/03/10 03:53:40;;;;;;;18.40;9.70;;;2.60;70.70;;;;;;4975335;28;20026;-78
2022/03/10 03:56:06;;;;;;;18.70;9.68;;;2.80;70.70;;;;;;4985124;28;20040;-79
2022/03/10 03:58:31;;;;;;;18.35;9.80;;;2.90;69.40;;;;;;4982228;28;20033;-84
2022/03/10 04:00:57;;;;;;;19.50;9.88;;;2.70;69.70;;;;;;5002381;28;20036;-84
2022/03/10 04:03:22;;;;;;;19.33;10.25;;;2.80;69.40;;;;;;4982975;28;20584;-83
2022/03/10 04:05:48;;;;;;;16.73;9.32;;;2.90;69.40;;;;;;4986666;28;20038;-85
2022/03/10 04:08:14;;;;;;;19.38;10.18;;;2.70;69.40;;;;;;4988167;28;20041;-83
2022/03/10 04:10:40;;;;;;;20.17;10.65;;;2.70;70.60;;;;;;4970758;28;20037;-84
2022/03/10 04:13:05;;;;;;;20.40;10.70;;;2.50;71.90;;;;;;4975045;28;20033;-83
2022/03/10 04:15:32;;;;;;;17.55;8.90;;;2.50;71.40;;;;;;4985277;28;20033;-84
2022/03/10 04:17:58;;;;;;;19.63;10.30;;;2.50;73.00;;;;;;4987950;28;20036;-84
2022/03/10 04:20:24;;;;;;;19.13;9.98;;;2.40;72.00;;;;;;4974632;28;20038;-83
2022/03/10 04:22:49;;;;;;;18.15;9.90;;;2.50;72.30;;;;;;5000203;28;20044;-83
2022/03/10 04:25:15;;;;;;;19.08;10.73;;;2.50;71.60;;;;;;5001198;28;20062;-84
2022/03/10 04:27:40;;;;;;;23.27;11.80;;;2.10;72.90;;;;;;4984042;28;20053;-83
2022/03/10 04:30:06;;;;;;;21.90;10.43;;;1.90;73.80;;;;;;5004091;28;20025;-83
2022/03/10 04:32:42;;;;;;;22.05;11.80;;;1.80;74.10;;;;;;4985926;28;20520;-84
2022/03/10 04:35:09;;;;;;;18.98;11.15;;;1.70;75.70;;;;;;5001338;28;20206;-84
2022/03/10 04:37:34;;;;;;;22.67;10.63;;;1.60;75.90;;;;;;4968662;28;20482;-83
2022/03/10 04:40:00;;;;;;;18.73;10.65;;;1.60;76.20;;;;;;4981107;28;20033;-82
2022/03/10 04:42:27;;;;;;;18.15;10.35;;;1.60;78.70;;;;;;4972442;28;20125;-83
2022/03/10 04:44:53;;;;;;;18.08;10.48;;;1.50;79.40;;;;;;4984839;28;20042;-83
2022/03/10 04:47:18;;;;;;;25.60;11.95;;;1.50;81.20;;;;;;4997363;28;20057;-83
2022/03/10 04:49:44;;;;;;;20.98;11.25;;;1.40;82.60;;;;;;4993998;28;20108;-83
2022/03/10 04:52:09;;;;;;;22.17;11.98;;;1.40;84.80;;;;;;4996118;28;20572;-84
2022/03/10 04:54:35;;;;;;;20.25;11.90;;;1.30;86.80;;;;;;4972731;28;20034;-83
2022/03/10 04:57:00;;;;;;;22.92;11.45;;;1.30;88.00;;;;;;4985555;28;20431;-83
2022/03/10 04:59:26;;;;;;;22.15;12.18;;;1.30;87.20;;;;;;4974396;28;20085;-83
2022/03/10 05:01:52;;;;;;;23.63;11.95;;;1.40;86.20;;;;;;4967335;28;20041;-83
2022/03/10 05:04:17;;;;;;;26.52;11.98;;;1.30;88.70;;;;;;4983223;28;20398;-83
2022/03/10 05:06:43;;;;;;;22.90;11.57;;;1.20;90.50;;;;;;5001000;28;20026;-82
2022/03/10 05:09:08;;;;;;;20.77;11.50;;;1.10;91.10;;;;;;4981155;28;20485;-83
2022/03/10 05:11:34;;;;;;;20.40;12.15;;;1.00;92.20;;;;;;4990628;28;20033;-83
2022/03/10 05:13:59;;;;;;;26.17;12.55;;;1.00;93.10;;;;;;4979240;28;20037;-83
2022/03/10 05:16:25;;;;;;;22.65;12.38;;;0.90;93.90;;;;;;4972527;28;20038;-83
2022/03/10 05:18:50;;;;;;;23.55;12.00;;;0.80;94.50;;;;;;4984876;28;20040;-81
2022/03/10 05:21:16;;;;;;;22.02;12.00;;;0.80;95.10;;;;;;4980989;28;20044;-83
2022/03/10 05:23:41;;;;;;;22.15;12.05;;;0.80;95.80;;;;;;4983050;28;20109;-82
2022/03/10 05:26:07;;;;;;;21.98;11.13;;;0.80;96.00;;;;;;4972925;28;20674;-83
2022/03/10 05:28:33;;;;;;;24.15;11.60;;;0.80;95.60;;;;;;4966817;28;20034;-82
2022/03/10 05:30:58;;;;;;;21.52;11.25;;;0.70;95.90;;;;;;4971270;28;20120;-83
2022/03/10 05:34:05;;;;;;;19.08;11.68;;;0.70;96.50;;;;;;4982359;28;20037;-79
2022/03/10 05:36:30;;;;;;;27.23;11.93;;;0.70;97.10;;;;;;4988487;28;20068;-78
2022/03/10 05:38:56;;;;;;;16.83;9.77;;;0.60;96.70;;;;;;4970259;28;20280;-79
2022/03/10 05:41:21;;;;;;;19.67;11.40;;;1.00;95.60;;;;;;4997577;28;20029;-80
2022/03/10 05:43:47;;;;;;;21.73;12.65;;;1.00;95.70;;;;;;4963960;28;20037;-78
2022/03/10 05:46:12;;;;;;;22.17;12.30;;;0.90;96.00;;;;;;4989730;28;20117;-78
2022/03/10 05:48:38;;;;;;;23.45;11.23;;;0.70;98.10;;;;;;4987200;28;20092;-78
2022/03/10 05:51:03;;;;;;;20.30;10.25;;;0.70;98.50;;;;;;4966748;28;20496;-80
2022/03/10 05:53:29;;;;;;;20.63;11.05;;;0.80;98.70;;;;;;4978987;28;20666;-78
2022/03/10 05:55:54;;;;;;;19.50;10.57;;;0.80;98.40;;;;;;4988889;28;20029;-78
2022/03/10 05:58:20;;;;;;;22.73;12.55;;;0.80;97.70;;;;;;4996644;28;20041;-79
2022/03/10 06:00:45;;;;;;;18.27;9.75;;;0.90;97.30;;;;;;4990652;28;20037;-79
2022/03/10 06:03:12;;;;;;;18.45;9.95;;;0.80;97.30;;;;;;4976798;28;20072;-78
2022/03/10 06:05:37;;;;;;;25.45;11.65;;;0.70;98.60;;;;;;4965587;28;20041;-79
2022/03/10 06:08:04;;;;;;;25.58;11.50;;;0.60;99.00;;;;;;4975513;28;20088;-78
2022/03/10 06:10:30;;;;;;;20.77;10.73;;;0.50;99.80;;;;;;5000146;28;20033;-78
2022/03/10 06:12:55;;;;;;;24.33;11.27;;;0.50;99.90;;;;;;4974007;28;20523;-79
2022/03/10 06:15:21;;;;;;;22.55;10.88;;;0.60;99.90;;;;;;4974602;28;20564;-79
2022/03/10 06:17:46;;;;;;;20.98;10.77;;;0.50;99.90;;;;;;4979146;28;20040;-79
2022/03/10 06:20:12;;;;;;;20.40;11.85;;;0.50;99.90;;;;;;4974377;28;20041;-78
2022/03/10 06:22:38;;;;;;;19.40;10.88;;;0.50;99.90;;;;;;4974539;28;20034;-78
2022/03/10 06:25:04;;;;;;;19.33;10.82;;;0.50;99.90;;;;;;4986044;28;20083;-79
2022/03/10 06:27:30;;;;;;;22.92;10.43;;;0.50;99.90;;;;;;4984981;28;20025;-79
2022/03/10 06:29:56;;;;;;;18.50;10.90;;;0.50;99.90;;;;;;4978597;28;20504;-78
2022/03/10 06:32:22;;;;;;;23.45;11.52;;;0.50;99.90;;;;;;4967396;28;20065;-79
2022/03/10 06:34:48;;;;;;;21.23;11.57;;;0.40;99.90;;;;;;4996499;28;20045;-80
2022/03/10 06:37:14;;;;;;;20.77;11.57;;;0.50;99.90;;;;;;4977639;28;20038;-82
2022/03/10 06:39:39;;;;;;;21.67;11.95;;;0.50;99.90;;;;;;4982340;28;20402;-82
2022/03/10 06:42:05;;;;;;;22.60;11.43;;;0.60;99.90;;;;;;4971558;28;20040;-82
2022/03/10 06:44:31;;;;;;;18.45;10.82;;;0.70;99.90;;;;;;4968874;28;20037;-82
2022/03/10 06:46:57;;;;;;;22.25;11.15;;;0.70;99.90;;;;;;4971558;28;20041;-82
2022/03/10 06:49:22;;;;;;;27.20;11.57;;;0.80;99.90;;;;;;4982683;28;20133;-82
2022/03/10 06:51:48;;;;;;;24.45;11.95;;;0.90;99.90;;;;;;4971095;28;20409;-82
2022/03/10 06:54:14;;;;;;;24.63;12.45;;;0.90;99.90;;;;;;4984416;28;20049;-81
2022/03/10 06:56:40;;;;;;;21.00;11.80;;;0.90;99.90;;;;;;4979874;28;20038;-82
2022/03/10 06:59:06;;;;;;;21.13;11.75;;;0.90;99.90;;;;;;4973304;28;20029;-81
2022/03/10 07:01:31;;;;;;;19.45;11.15;;;1.00;99.90;;;;;;4965486;28;20045;-81
2022/03/10 07:03:57;;;;;;;21.35;11.45;;;1.20;99.90;;;;;;4975277;28;20119;-81
2022/03/10 07:06:23;;;;;;;21.27;11.57;;;1.30;99.90;;;;;;4967734;28;20034;-81
2022/03/10 07:08:49;;;;;;;21.70;11.85;;;1.40;99.90;;;;;;4972700;28;20061;-81
2022/03/10 07:11:15;;;;;;;28.15;12.07;;;1.40;99.90;;;;;;4983380;28;20054;-80
2022/03/10 07:13:40;;;;;;;23.75;13.15;;;1.40;99.90;;;;;;4983838;28;20040;-80
2022/03/10 07:16:06;;;;;;;20.77;11.85;;;1.60;99.90;;;;;;4988377;28;20115;-80
2022/03/10 07:18:31;;;;;;;23.05;11.95;;;1.60;99.90;;;;;;4990596;28;20033;-81
2022/03/10 07:20:58;;;;;;;22.25;11.93;;;1.60;99.90;;;;;;4986280;28;20029;-81
2022/03/10 07:23:24;;;;;;;22.25;11.45;;;1.80;99.90;;;;;;4973270;28;20029;-81
2022/03/10 07:25:49;;;;;;;21.83;11.32;;;2.00;99.90;;;;;;4984728;28;20481;-81
2022/03/10 07:28:15;;;;;;;20.90;10.52;;;2.20;99.90;;;;;;4975889;28;20163;-80
2022/03/10 07:30:40;;;;;;;22.42;11.30;;;2.40;99.90;;;;;;4990751;28;20025;-80
2022/03/10 07:33:06;;;;;;;20.63;12.68;;;2.60;99.90;;;;;;4972083;28;20036;-81
2022/03/10 07:35:31;;;;;;;20.83;12.00;;;2.70;99.90;;;;;;4984892;28;20121;-81
2022/03/10 07:37:59;;;;;;;21.73;11.70;;;2.80;99.90;;;;;;4987188;28;20033;-81
2022/03/10 07:40:25;;;;;;;20.45;10.40;;;2.90;99.70;;;;;;4973901;28;20069;-80
2022/03/10 07:42:51;;;;;;;21.88;10.95;;;3.10;99.10;;;;;;4992210;28;20079;-81
2022/03/10 07:45:16;;;;;;;21.38;11.10;;;3.20;98.90;;;;;;4990245;28;20049;-80
2022/03/10 07:47:42;;;;;;;22.23;10.38;;;3.30;98.50;;;;;;4987865;28;20455;-80
2022/03/10 07:50:08;;;;;;;18.00;11.15;;;3.50;97.80;;;;;;4981009;28;20095;-81
2022/03/10 07:52:33;;;;;;;14.60;8.63;;;4.10;96.50;;;;;;4974022;28;20121;-80
2022/03/10 07:54:59;;;;;;;20.40;11.00;;;4.70;94.80;;;;;;5000989;28;20030;-81
2022/03/10 07:57:24;;;;;;;20.60;10.98;;;4.90;93.00;;;;;;4988628;28;20094;-81
2022/03/10 07:59:51;;;;;;;19.65;10.50;;;5.00;92.20;;;;;;4982793;28;20512;-81
2022/03/10 08:02:17;;;;;;;17.08;10.30;;;5.30;91.60;;;;;;4984139;28;20076;-81
2022/03/10 08:04:43;;;;;;;23.65;12.00;;;5.20;92.30;;;;;;4967852;28;20030;-81
2022/03/10 08:07:08;;;;;;;27.60;12.35;;;5.40;91.20;;;;;;4984251;28;20117;-81
2022/03/10 08:09:35;;;;;;;19.65;11.35;;;5.40;91.30;;;;;;4983409;28;20030;-81
2022/03/10 08:12:00;;;;;;;15.98;8.40;;;5.90;90.80;;;;;;5004550;28;20044;-81
2022/03/10 08:14:26;;;;;;;15.20;8.80;;;6.20;89.10;;;;;;4982870;28;20022;-81
2022/03/10 08:16:52;;;;;;;17.15;8.43;;;6.60;86.80;;;;;;4987136;28;20041;-81
2022/03/10 08:19:17;;;;;;;18.63;10.40;;;6.60;87.20;;;;;;5001932;28;20037;-81
2022/03/10 08:21:43;;;;;;;18.73;10.10;;;6.90;83.10;;;;;;4984989;28;20025;-80
2022/03/10 08:24:10;;;;;;;23.75;12.45;;;7.10;83.10;;;;;;4982389;28;20036;-80
2022/03/10 08:26:35;;;;;;;22.17;11.85;;;7.10;80.60;;;;;;4975192;28;20034;-80
2022/03/10 08:29:01;;;;;;;19.58;11.65;;;7.50;77.00;;;;;;4976805;28;20025;-81
2022/03/10 08:31:27;;;;;;;20.27;11.02;;;7.70;74.50;;;;;;4969423;28;20037;-81
2022/03/10 08:33:52;;;;;;;16.25;9.82;;;8.30;73.40;;;;;;4969369;28;20053;-80
2022/03/10 08:36:18;;;;;;;21.25;12.50;;;8.50;73.50;;;;;;4991399;28;20045;-80
2022/03/10 08:38:43;;;;;;;21.17;10.90;;;8.60;70.00;;;;;;4992601;28;20033;-81
2022/03/10 08:41:09;;;;;;;23.63;11.20;;;8.50;70.10;;;;;;4965690;28;20049;-80
2022/03/10 08:43:37;;;;;;;22.55;11.00;;;8.90;68.30;;;;;;4972004;28;20026;-80
2022/03/10 08:46:02;;;;;;;24.20;11.30;;;9.40;65.40;;;;;;4970497;28;20029;-81
2022/03/10 08:48:28;;;;;;;16.55;9.95;;;9.90;64.40;;;;;;4966560;28;20493;-81
2022/03/10 08:50:53;;;;;;;22.73;12.07;;;9.80;62.80;;;;;;4998071;28;20038;-80
2022/03/10 08:53:19;;;;;;;22.83;12.48;;;10.10;61.30;;;;;;4990073;28;20040;-80
2022/03/10 08:55:44;;;;;;;24.17;12.82;;;9.80;60.10;;;;;;4968509;28;20030;-80
2022/03/10 08:58:10;;;;;;;20.90;10.73;;;10.20;58.60;;;;;;4985330;28;20761;-80
2022/03/10 09:00:36;;;;;;;21.83;11.65;;;10.40;58.90;;;;;;4982202;28;20529;-80
2022/03/10 09:03:01;;;;;;;22.33;12.13;;;10.60;58.00;;;;;;4973911;28;20045;-80
2022/03/10 09:05:27;;;;;;;22.65;11.65;;;10.90;57.60;;;;;;4983441;28;20034;-80
2022/03/10 09:07:52;;;;;;;31.50;14.38;;;10.90;57.20;;;;;;4986559;28;20037;-81
2022/03/10 09:10:18;;;;;;;24.52;13.13;;;11.10;55.80;;;;;;4969443;28;20038;-80
2022/03/10 09:12:44;;;;;;;20.50;11.88;;;11.40;54.00;;;;;;5006303;28;20029;-80
2022/03/10 09:15:10;;;;;;;25.50;10.88;;;11.50;54.30;;;;;;4979478;28;20572;-80
2022/03/10 09:17:38;;;;;;;25.50;14.38;;;11.80;53.60;;;;;;4972773;28;20088;-80
2022/03/10 09:20:08;;;;;;;25.33;15.32;;;11.60;51.60;;;;;;4976377;28;20040;-81
2022/03/10 09:22:33;;;;;;;24.50;13.27;;;11.60;53.30;;;;;;4967582;28;20582;-79
2022/03/10 09:25:02;;;;;;;29.35;14.68;;;12.00;54.40;;;;;;4968729;28;20116;-80
2022/03/10 09:27:28;;;;;;;28.27;14.38;;;12.60;50.60;;;;;;4970546;28;20034;-79
2022/03/10 09:29:53;;;;;;;30.10;15.60;;;12.40;51.00;;;;;;4971884;28;20116;-79
2022/03/10 09:32:19;;;;;;;26.17;14.35;;;12.60;51.00;;;;;;4984169;28;20033;-79
2022/03/10 09:34:44;;;;;;;28.45;15.77;;;12.90;51.40;;;;;;4966103;28;20069;-79
2022/03/10 09:37:11;;;;;;;30.65;14.88;;;13.10;51.20;;;;;;4970108;28;20122;-80
2022/03/10 09:39:36;;;;;;;26.95;13.07;;;13.60;48.20;;;;;;4982810;28;20452;-80
2022/03/10 09:42:04;;;;;;;32.45;16.35;;;13.50;48.50;;;;;;4962963;28;20191;-80
2022/03/10 09:44:29;;;;;;;27.58;15.30;;;13.20;48.80;;;;;;4972144;28;20105;-81
2022/03/10 09:47:02;;;;;;;29.05;16.60;;;13.30;48.40;;;;;;4972804;28;20501;-81
2022/03/10 09:49:27;;;;;;;39.33;16.13;;;13.40;49.10;;;;;;4993729;28;20079;-80
2022/03/10 09:51:53;;;;;;;29.05;15.18;;;13.80;49.20;;;;;;4971505;28;20033;-80
2022/03/10 09:54:18;;;;;;;27.60;16.02;;;14.00;48.00;;;;;;4966506;28;20041;-81
2022/03/10 09:56:44;;;;;;;32.67;16.52;;;14.10;47.90;;;;;;4984448;28;20030;-80
2022/03/10 09:59:10;;;;;;;27.40;16.25;;;14.10;46.20;;;;;;4972265;28;20057;-81
2022/03/10 10:01:35;;;;;;;27.58;15.23;;;13.80;46.50;;;;;;4970518;28;20164;-80
2022/03/10 10:04:01;;;;;;;30.83;14.35;;;14.50;47.10;;;;;;4986738;28;20033;-80
2022/03/10 10:06:27;;;;;;;30.70;16.08;;;15.30;44.40;;;;;;4979712;28;20032;-81
2022/03/10 10:08:57;;;;;;;26.27;14.13;;;14.80;44.70;;;;;;4981444;28;20041;-81
2022/03/10 10:11:30;;;;;;;28.80;15.25;;;14.80;45.30;;;;;;4992842;28;20037;-81
2022/03/10 10:13:56;;;;;;;30.17;15.07;;;15.00;44.10;;;;;;4979272;28;20041;-81
2022/03/10 10:16:22;;;;;;;28.83;15.63;;;15.80;43.90;;;;;;4987749;28;20038;-81
2022/03/10 10:18:58;;;;;;;28.67;16.63;;;15.30;42.60;;;;;;4976828;28;20473;-81
2022/03/10 10:21:24;;;;;;;30.83;13.68;;;15.70;41.60;;;;;;4967649;28;20133;-82
2022/03/10 10:23:52;;;;;;;29.70;16.30;;;15.80;43.50;;;;;;4973271;28;20599;-81
2022/03/10 10:26:18;;;;;;;26.83;15.80;;;16.30;41.20;;;;;;4979852;28;20045;-82
2022/03/10 10:28:47;;;;;;;29.77;16.88;;;16.60;40.20;;;;;;4978418;28;20084;-82
2022/03/10 10:31:18;;;;;;;28.88;13.88;;;16.20;42.40;;;;;;4965310;28;20037;-82
2022/03/10 10:33:57;;;;;;;27.90;14.55;;;16.40;42.00;;;;;;4981266;28;20489;-82
2022/03/10 10:36:27;;;;;;;27.13;15.70;;;16.40;41.40;;;;;;4980546;28;20065;-82
2022/03/10 10:38:57;;;;;;;28.10;14.65;;;16.70;39.10;;;;;;4980872;28;20034;-82
2022/03/10 10:41:30;;;;;;;28.20;14.98;;;16.90;39.00;;;;;;4985983;28;20033;-82
2022/03/10 10:44:03;;;;;;;31.95;16.55;;;17.00;39.50;;;;;;4982545;28;20033;-81
2022/03/10 10:46:45;;;;;;;28.75;15.88;;;17.20;39.20;;;;;;4967983;28;20036;-82
2022/03/10 10:49:15;;;;;;;26.42;14.85;;;17.20;37.70;;;;;;4973079;28;20028;-82
2022/03/10 10:51:43;;;;;;;28.60;16.42;;;17.40;37.50;;;;;;4966269;28;20540;-81
2022/03/10 10:54:23;;;;;;;25.35;14.30;;;17.20;37.50;;;;;;5005325;28;20029;-82
2022/03/10 10:56:49;;;;;;;27.60;15.32;;;17.70;38.30;;;;;;4988210;28;20397;-81
2022/03/10 10:59:30;;;;;;;25.65;14.52;;;18.20;36.90;;;;;;4983306;28;20038;-82
2022/03/10 11:02:18;;;;;;;31.35;16.83;;;17.90;37.00;;;;;;4985989;28;20033;-81
2022/03/10 11:04:51;;;;;;;28.83;16.25;;;17.80;35.90;;;;;;4965294;28;20029;-81
2022/03/10 11:07:17;;;;;;;28.27;15.40;;;18.10;35.80;;;;;;4964740;28;20107;-81
2022/03/10 11:09:44;;;;;;;25.63;13.57;;;18.00;37.40;;;;;;4970007;28;20092;-80
2022/03/10 11:12:14;;;;;;;25.52;15.13;;;17.70;38.00;;;;;;4995087;28;20030;-80
2022/03/10 11:14:40;;;;;;;25.10;14.55;;;18.10;35.80;;;;;;4987914;28;20037;-80
2022/03/10 11:17:06;;;;;;;23.98;13.68;;;18.00;36.00;;;;;;4983948;28;20477;-80
2022/03/10 11:19:33;;;;;;;22.25;13.65;;;18.50;36.30;;;;;;4978345;28;20025;-80
2022/03/10 11:22:23;;;;;;;26.20;14.02;;;18.40;35.90;;;;;;4980326;28;20029;-80
2022/03/10 11:25:07;;;;;;;25.25;15.07;;;18.30;37.20;;;;;;4995505;28;20579;-79
2022/03/10 11:27:35;;;;;;;23.65;13.50;;;17.80;35.70;;;;;;4994338;28;20393;-79
2022/03/10 11:30:02;;;;;;;23.23;14.15;;;18.50;36.60;;;;;;4977300;28;20373;-80
2022/03/10 11:32:28;;;;;;;22.10;12.43;;;18.70;36.70;;;;;;4977847;28;20498;-79
2022/03/10 11:35:00;;;;;;;23.63;14.15;;;19.20;34.40;;;;;;5003039;28;20030;-79
2022/03/10 11:37:41;;;;;;;21.02;13.73;;;19.40;34.40;;;;;;4977151;28;20038;-80
2022/03/10 11:40:08;;;;;;;19.08;11.35;;;18.80;32.80;;;;;;4999638;28;20064;-79
2022/03/10 11:42:34;;;;;;;25.13;12.98;;;19.00;34.70;;;;;;4967181;28;20025;-79
2022/03/10 11:45:19;;;;;;;19.10;11.35;;;18.70;33.20;;;;;;4988930;28;20029;-79
2022/03/10 11:47:46;;;;;;;25.02;12.82;;;18.70;33.80;;;;;;4998802;28;20025;-79
2022/03/10 11:50:26;;;;;;;21.60;13.43;;;18.40;33.10;;;;;;4982254;28;20036;-79
2022/03/10 11:52:56;;;;;;;24.15;13.90;;;18.70;33.10;;;;;;5018406;28;20022;-80
2022/03/10 11:55:22;;;;;;;23.02;13.48;;;19.20;33.90;;;;;;4970252;28;20040;-79
2022/03/10 11:57:54;;;;;;;21.73;11.82;;;19.50;33.50;;;;;;4966971;28;20041;-80
2022/03/10 12:00:23;;;;;;;20.48;12.57;;;19.80;32.60;;;;;;5012559;28;20403;-80
2022/03/10 12:02:57;;;;;;;19.58;12.45;;;19.70;33.30;;;;;;5003281;28;20038;-79
2022/03/10 12:05:22;;;;;;;17.60;11.25;;;20.00;31.90;;;;;;4965363;28;20034;-80
2022/03/10 12:07:51;;;;;;;16.85;11.60;;;19.90;32.00;;;;;;4986080;28;20100;-80
2022/03/10 12:10:16;;;;;;;16.52;11.68;;;19.70;32.50;;;;;;4965411;28;20078;-80
2022/03/10 12:12:43;;;;;;;17.00;10.73;;;19.80;33.30;;;;;;4982685;28;20037;-79
2022/03/10 12:15:38;;;;;;;20.95;11.60;;;20.00;32.60;;;;;;4985906;28;20038;-79
2022/03/10 12:18:18;;;;;;;17.35;10.77;;;20.30;33.20;;;;;;4979227;28;20034;-80
2022/03/10 12:20:44;;;;;;;19.02;12.13;;;19.90;32.90;;;;;;4987198;28;20117;-81
2022/03/10 12:23:14;;;;;;;18.17;11.23;;;19.70;32.30;;;;;;4982317;28;20054;-79
2022/03/10 12:25:44;;;;;;;15.85;9.80;;;19.70;31.30;;;;;;4974902;28;20512;-80
2022/03/10 12:28:11;;;;;;;18.02;10.15;;;19.90;33.50;;;;;;4978558;28;20044;-79
2022/03/10 12:30:46;;;;;;;18.15;11.15;;;19.80;31.40;;;;;;4972694;28;20040;-80
2022/03/10 12:33:11;;;;;;;18.52;10.25;;;19.50;31.60;;;;;;4969844;28;20040;-79
2022/03/10 12:35:38;;;;;;;14.57;9.63;;;19.80;31.80;;;;;;4998500;28;20034;-80
2022/03/10 12:38:04;;;;;;;16.63;8.80;;;20.10;31.50;;;;;;4987387;28;20172;-79
2022/03/10 12:40:30;;;;;;;11.55;8.70;;;20.10;31.60;;;;;;5000288;28;20506;-80